createdAt,value
2017-11-29T00:01:37.898Z,39.50
2017-11-29T00:04:05.329Z,39.70
2017-11-29T00:06:32.761Z,39.90
2017-11-29T00:09:00.177Z,40.10
2017-11-29T00:11:27.650Z,40.20
2017-11-29T00:13:55.083Z,40.30
2017-11-29T00:16:23.273Z,40.50
2017-11-29T00:18:50.706Z,40.50
2017-11-29T00:21:18.903Z,41.00
2017-11-29T00:23:46.338Z,40.90
2017-11-29T00:26:13.762Z,41.40
2017-11-29T00:28:41.220Z,41.80
2017-11-29T00:31:08.632Z,42.50
2017-11-29T00:33:36.058Z,43.10
2017-11-29T00:36:03.481Z,43.60
2017-11-29T00:38:30.913Z,44.00
2017-11-29T00:40:58.359Z,44.50
2017-11-29T00:43:25.774Z,44.90
2017-11-29T00:45:53.207Z,45.20
2017-11-29T00:48:20.629Z,45.70
2017-11-29T00:50:48.060Z,46.00
2017-11-29T00:53:15.505Z,46.30
2017-11-29T00:55:42.933Z,46.50
2017-11-29T00:58:10.367Z,47.00
2017-11-29T01:00:37.807Z,47.20
2017-11-29T01:03:05.232Z,47.70
2017-11-29T01:05:32.661Z,47.90
2017-11-29T01:08:00.113Z,48.20
2017-11-29T01:10:27.537Z,48.50
2017-11-29T01:12:54.981Z,48.60
2017-11-29T01:15:22.412Z,49.00
2017-11-29T01:17:50.625Z,49.20
2017-11-29T01:20:18.057Z,49.10
2017-11-29T01:22:45.493Z,49.30
2017-11-29T01:25:12.930Z,49.20
2017-11-29T01:27:40.366Z,49.50
2017-11-29T01:30:07.793Z,51.00
2017-11-29T01:32:35.259Z,49.60
2017-11-29T01:35:02.688Z,49.90
2017-11-29T01:37:30.878Z,50.40
2017-11-29T01:39:58.312Z,50.30
2017-11-29T01:42:25.738Z,50.30
2017-11-29T01:44:53.184Z,50.10
2017-11-29T01:47:20.614Z,49.70
2017-11-29T01:49:48.053Z,49.60
2017-11-29T01:52:15.478Z,49.60
2017-11-29T01:54:43.691Z,49.40
2017-11-29T01:57:11.126Z,49.30
2017-11-29T01:59:38.561Z,49.30
2017-11-29T02:02:05.989Z,49.20
2017-11-29T02:04:33.437Z,49.40
2017-11-29T02:07:00.867Z,49.40
2017-11-29T02:09:28.289Z,49.30
2017-11-29T02:11:56.506Z,49.10
2017-11-29T02:14:23.938Z,49.00
2017-11-29T02:16:51.389Z,48.90
2017-11-29T02:19:18.853Z,49.00
2017-11-29T02:21:46.292Z,49.10
2017-11-29T02:24:13.726Z,49.00
2017-11-29T02:26:41.173Z,48.70
2017-11-29T02:29:08.601Z,48.70
2017-11-29T02:31:36.053Z,48.70
2017-11-29T02:34:03.481Z,49.10
2017-11-29T02:36:30.923Z,49.10
2017-11-29T02:38:59.123Z,48.90
2017-11-29T02:41:38.403Z,48.90
2017-11-29T02:44:05.809Z,48.80
2017-11-29T02:46:33.250Z,49.00
2017-11-29T02:49:00.692Z,49.00
2017-11-29T02:51:28.141Z,49.00
2017-11-29T02:53:55.571Z,48.60
2017-11-29T02:56:23.793Z,48.60
2017-11-29T02:58:51.984Z,48.60
2017-11-29T03:01:19.420Z,48.40
2017-11-29T03:03:46.865Z,48.70
2017-11-29T03:06:14.289Z,47.90
2017-11-29T03:08:41.734Z,47.70
2017-11-29T03:11:09.166Z,47.50
2017-11-29T03:13:36.706Z,47.60
2017-11-29T03:16:04.910Z,47.50
2017-11-29T03:18:32.361Z,47.50
2017-11-29T03:20:59.804Z,47.50
2017-11-29T03:23:27.243Z,47.40
2017-11-29T03:25:54.676Z,47.30
2017-11-29T03:28:22.114Z,47.10
2017-11-29T03:30:50.308Z,47.20
2017-11-29T03:33:17.752Z,47.20
2017-11-29T03:35:45.172Z,46.80
2017-11-29T03:38:12.616Z,47.40
2017-11-29T03:40:40.047Z,47.60
2017-11-29T03:43:07.472Z,47.60
2017-11-29T03:45:34.911Z,47.90
2017-11-29T03:48:02.351Z,48.20
2017-11-29T03:50:29.803Z,48.10
2017-11-29T03:52:57.264Z,48.10
2017-11-29T03:55:24.708Z,48.00
2017-11-29T03:57:52.125Z,48.10
2017-11-29T04:00:19.570Z,48.30
2017-11-29T04:02:46.998Z,48.20
2017-11-29T04:05:14.460Z,48.00
2017-11-29T04:07:41.867Z,48.00
2017-11-29T04:10:10.075Z,48.20
2017-11-29T04:12:37.505Z,48.10
2017-11-29T04:15:04.947Z,48.10
2017-11-29T04:17:33.128Z,48.20
2017-11-29T04:20:00.770Z,48.20
2017-11-29T04:22:28.196Z,48.40
2017-11-29T04:24:55.647Z,48.60
2017-11-29T04:27:23.086Z,48.90
2017-11-29T04:29:50.515Z,49.00
2017-11-29T04:32:17.958Z,49.20
2017-11-29T04:34:46.149Z,49.40
2017-11-29T04:37:13.590Z,49.40
2017-11-29T04:39:41.781Z,49.70
2017-11-29T04:42:09.226Z,49.60
2017-11-29T04:44:36.657Z,50.00
2017-11-29T04:47:04.090Z,50.10
2017-11-29T04:49:31.509Z,50.30
2017-11-29T04:51:58.961Z,50.20
2017-11-29T04:54:26.394Z,50.00
2017-11-29T04:56:53.839Z,50.30
2017-11-29T04:59:21.286Z,50.30
2017-11-29T05:01:48.720Z,50.30
2017-11-29T05:04:16.154Z,50.30
2017-11-29T05:06:43.582Z,50.30
2017-11-29T05:09:11.787Z,50.40
2017-11-29T05:11:39.205Z,50.30
2017-11-29T05:14:07.539Z,50.30
2017-11-29T05:16:34.939Z,50.30
2017-11-29T05:19:03.365Z,50.30
2017-11-29T05:21:30.774Z,50.30
2017-11-29T05:23:58.978Z,50.30
2017-11-29T05:26:26.402Z,50.20
2017-11-29T05:28:53.842Z,50.20
2017-11-29T05:31:21.270Z,50.20
2017-11-29T05:33:48.701Z,50.20
2017-11-29T05:36:16.126Z,50.20
2017-11-29T05:38:44.340Z,50.20
2017-11-29T05:41:11.770Z,50.20
2017-11-29T05:43:39.213Z,50.20
2017-11-29T05:46:06.663Z,50.20
2017-11-29T05:48:34.981Z,50.70
2017-11-29T05:51:02.465Z,50.70
2017-11-29T05:53:29.892Z,50.50
2017-11-29T05:55:57.322Z,50.50
2017-11-29T05:58:24.754Z,51.00
2017-11-29T06:00:52.967Z,51.80
2017-11-29T06:03:20.387Z,51.30
2017-11-29T06:05:47.830Z,51.20
2017-11-29T06:08:15.249Z,51.30
2017-11-29T06:10:42.683Z,51.30
2017-11-29T06:13:10.115Z,51.50
2017-11-29T06:15:38.324Z,51.50
2017-11-29T06:18:06.646Z,51.40
2017-11-29T06:20:34.081Z,51.70
2017-11-29T06:23:01.518Z,51.50
2017-11-29T06:25:28.956Z,51.40
2017-11-29T06:27:56.376Z,51.60
2017-11-29T06:30:23.838Z,51.60
2017-11-29T06:32:52.033Z,51.50
2017-11-29T06:35:19.466Z,51.20
2017-11-29T06:37:46.902Z,51.20
2017-11-29T06:40:14.325Z,51.20
2017-11-29T06:42:41.768Z,51.10
2017-11-29T06:45:09.190Z,51.00
2017-11-29T06:47:36.636Z,51.10
2017-11-29T06:50:04.078Z,51.10
2017-11-29T06:52:31.522Z,50.80
2017-11-29T06:54:58.946Z,51.00
2017-11-29T06:57:26.385Z,51.30
2017-11-29T06:59:53.811Z,51.20
2017-11-29T07:02:21.266Z,51.50
2017-11-29T07:04:48.702Z,51.50
2017-11-29T07:07:16.889Z,51.50
2017-11-29T07:09:44.331Z,51.50
2017-11-29T07:12:11.753Z,51.50
2017-11-29T07:14:39.189Z,51.70
2017-11-29T07:17:06.619Z,51.70
2017-11-29T07:19:34.062Z,51.80
2017-11-29T07:22:01.491Z,51.90
2017-11-29T07:24:28.921Z,52.30
2017-11-29T07:26:56.352Z,52.20
2017-11-29T07:29:23.790Z,52.20
2017-11-29T07:31:51.226Z,52.50
2017-11-29T07:34:18.662Z,52.50
2017-11-29T07:36:46.092Z,52.20
2017-11-29T07:39:14.300Z,52.10
2017-11-29T07:41:41.730Z,52.00
2017-11-29T07:44:09.179Z,51.90
2017-11-29T07:46:36.601Z,52.30
2017-11-29T07:49:04.041Z,52.10
2017-11-29T07:51:31.466Z,51.80
2017-11-29T07:53:58.922Z,51.70
2017-11-29T07:56:26.351Z,51.60
2017-11-29T07:58:54.540Z,51.20
2017-11-29T08:01:21.978Z,51.10
2017-11-29T08:03:49.413Z,51.30
2017-11-29T08:06:16.858Z,51.50
2017-11-29T08:08:44.287Z,51.60
2017-11-29T08:11:11.728Z,51.30
2017-11-29T08:13:39.150Z,50.80
2017-11-29T08:16:07.365Z,50.50
2017-11-29T08:18:34.803Z,50.50
2017-11-29T08:21:02.238Z,50.60
2017-11-29T08:23:29.677Z,50.60
2017-11-29T08:25:57.134Z,50.50
2017-11-29T08:28:24.570Z,50.40
2017-11-29T08:30:51.997Z,50.20
2017-11-29T08:33:19.438Z,50.20
2017-11-29T08:35:46.874Z,50.30
2017-11-29T08:38:15.076Z,50.30
2017-11-29T08:40:42.514Z,50.50
2017-11-29T08:43:09.950Z,51.30
2017-11-29T08:45:37.374Z,50.60
2017-11-29T08:48:04.837Z,50.30
2017-11-29T08:50:32.234Z,49.90
2017-11-29T08:53:00.443Z,49.90
2017-11-29T08:55:27.890Z,49.80
2017-11-29T08:57:55.318Z,49.70
2017-11-29T09:00:22.740Z,48.90
2017-11-29T09:02:50.186Z,48.00
2017-11-29T09:05:17.625Z,47.00
2017-11-29T09:07:45.054Z,46.80
2017-11-29T09:10:12.481Z,46.40
2017-11-29T09:12:39.922Z,46.00
2017-11-29T09:15:07.355Z,46.20
2017-11-29T09:17:34.773Z,44.80
2017-11-29T09:20:02.215Z,43.30
2017-11-29T09:22:29.646Z,42.60
2017-11-29T09:24:57.086Z,42.70
2017-11-29T09:27:24.533Z,42.80
2017-11-29T09:29:51.971Z,42.10
2017-11-29T09:32:19.399Z,42.00
2017-11-29T09:34:47.616Z,40.50
2017-11-29T09:37:15.038Z,40.50
2017-11-29T09:39:42.477Z,39.60
2017-11-29T09:42:09.917Z,39.70
2017-11-29T09:44:37.354Z,39.30
2017-11-29T09:47:04.790Z,38.90
2017-11-29T09:49:32.238Z,38.40
2017-11-29T09:51:59.673Z,37.60
2017-11-29T09:54:27.107Z,38.20
2017-11-29T09:56:54.555Z,37.80
2017-11-29T09:59:21.979Z,38.10
2017-11-29T10:01:50.184Z,39.10
2017-11-29T10:04:17.618Z,39.00
2017-11-29T10:06:45.052Z,38.50
2017-11-29T10:09:12.468Z,36.90
2017-11-29T10:11:39.914Z,35.30
2017-11-29T10:14:07.334Z,34.50
2017-11-29T10:16:34.766Z,33.10
2017-11-29T10:19:02.189Z,33.40
2017-11-29T10:21:30.370Z,30.70
2017-11-29T10:23:57.813Z,30.50
2017-11-29T10:26:25.240Z,29.90
2017-11-29T10:28:52.676Z,29.70
2017-11-29T10:31:20.089Z,28.70
2017-11-29T10:33:48.299Z,27.80
2017-11-29T10:36:15.729Z,27.70
2017-11-29T10:38:43.162Z,28.30
2017-11-29T10:41:10.588Z,29.20
2017-11-29T10:43:38.026Z,29.50
2017-11-29T10:46:05.462Z,30.00
2017-11-29T10:48:32.905Z,30.30
2017-11-29T10:51:01.095Z,30.70
2017-11-29T10:53:28.523Z,30.70
2017-11-29T10:55:55.961Z,31.00
2017-11-29T10:58:23.394Z,31.10
2017-11-29T11:00:50.817Z,29.90
2017-11-29T11:03:18.255Z,29.80
2017-11-29T11:05:46.450Z,26.70
2017-11-29T11:08:13.889Z,26.60
2017-11-29T11:10:41.315Z,25.80
2017-11-29T11:13:08.742Z,26.40
2017-11-29T11:15:36.183Z,26.80
2017-11-29T11:18:03.606Z,27.30
2017-11-29T11:20:31.053Z,28.10
2017-11-29T11:22:59.244Z,28.70
2017-11-29T11:25:26.690Z,28.70
2017-11-29T11:27:54.097Z,29.00
2017-11-29T11:30:21.539Z,29.00
2017-11-29T11:32:48.967Z,30.10
2017-11-29T11:35:16.428Z,26.70
2017-11-29T11:37:43.845Z,27.20
2017-11-29T11:40:11.286Z,27.50
2017-11-29T11:42:38.734Z,27.40
2017-11-29T11:45:06.174Z,28.10
2017-11-29T11:47:33.627Z,28.30
2017-11-29T11:50:01.061Z,28.90
2017-11-29T11:52:28.497Z,29.20
2017-11-29T11:54:55.926Z,28.10
2017-11-29T11:57:23.366Z,27.10
2017-11-29T11:59:50.803Z,27.10
2017-11-29T12:02:18.248Z,27.30
2017-11-29T12:04:45.674Z,28.30
2017-11-29T12:07:13.105Z,28.00
2017-11-29T12:09:40.550Z,29.20
2017-11-29T12:12:08.208Z,27.70
2017-11-29T12:14:35.624Z,27.20
2017-11-29T12:17:03.091Z,26.40
2017-11-29T12:19:30.518Z,25.80
2017-11-29T12:21:58.706Z,25.10
2017-11-29T12:24:26.140Z,25.10
2017-11-29T12:26:54.333Z,24.60
2017-11-29T12:29:21.768Z,24.40
2017-11-29T12:31:49.210Z,24.20
2017-11-29T12:34:16.655Z,24.20
2017-11-29T12:36:44.080Z,24.20
2017-11-29T12:39:11.525Z,23.40
2017-11-29T12:41:38.957Z,22.50
2017-11-29T12:44:07.173Z,22.70
2017-11-29T12:46:34.593Z,22.70
2017-11-29T12:49:13.695Z,22.40
2017-11-29T12:51:41.131Z,22.30
2017-11-29T12:54:08.578Z,22.40
2017-11-29T12:56:36.015Z,22.90
2017-11-29T12:59:03.486Z,21.20
2017-11-29T13:01:30.906Z,21.80
2017-11-29T13:03:58.344Z,20.60
2017-11-29T13:06:25.774Z,19.00
2017-11-29T13:08:53.204Z,15.30
2017-11-29T13:11:20.639Z,15.90
2017-11-29T13:13:48.075Z,15.80
2017-11-29T13:16:16.293Z,12.50
2017-11-29T13:18:43.710Z,12.50
2017-11-29T13:21:11.916Z,5.00
2017-11-29T13:23:39.339Z,5.00
2017-11-29T13:26:06.799Z,2.30
2017-11-29T13:28:34.221Z,2.00
2017-11-29T13:31:01.642Z,1.70
2017-11-29T13:33:29.080Z,1.80
2017-11-29T13:35:56.504Z,2.80
2017-11-29T13:38:24.710Z,8.00
2017-11-29T13:40:52.130Z,7.90
2017-11-29T13:43:19.567Z,9.20
2017-11-29T13:45:46.989Z,10.10
2017-11-29T13:48:14.439Z,12.10
2017-11-29T13:50:41.859Z,12.60
2017-11-29T13:53:10.085Z,14.20
2017-11-29T13:55:37.518Z,14.20
2017-11-29T13:58:04.963Z,14.70
2017-11-29T14:00:32.398Z,15.00
2017-11-29T14:02:59.843Z,15.90
2017-11-29T14:05:27.291Z,16.60
2017-11-29T14:07:54.732Z,16.80
2017-11-29T14:10:22.167Z,16.40
2017-11-29T14:12:49.590Z,18.70
2017-11-29T14:15:17.796Z,19.40
2017-11-29T14:17:45.230Z,19.30
2017-11-29T14:20:12.661Z,20.10
2017-11-29T14:22:40.103Z,20.40
2017-11-29T14:25:07.534Z,20.20
2017-11-29T14:27:34.964Z,19.60
2017-11-29T14:30:02.431Z,20.30
2017-11-29T14:32:29.864Z,20.30
2017-11-29T14:34:57.295Z,19.80
2017-11-29T14:37:25.505Z,17.90
2017-11-29T14:39:52.922Z,17.30
2017-11-29T14:42:20.362Z,17.90
2017-11-29T14:44:47.786Z,17.50
2017-11-29T14:47:15.219Z,17.40
2017-11-29T14:49:42.639Z,17.50
2017-11-29T14:52:10.074Z,17.60
2017-11-29T14:54:37.502Z,18.20
2017-11-29T14:57:04.945Z,18.50
2017-11-29T14:59:32.379Z,18.50
2017-11-29T15:01:59.805Z,18.50
2017-11-29T15:04:27.242Z,18.60
2017-11-29T15:06:54.673Z,18.60
2017-11-29T15:09:22.110Z,19.10
2017-11-29T15:11:49.541Z,19.10
2017-11-29T15:14:16.971Z,18.90
2017-11-29T15:16:44.435Z,19.20
2017-11-29T15:19:11.853Z,19.20
2017-11-29T15:21:39.277Z,19.40
2017-11-29T15:24:07.554Z,19.70
2017-11-29T15:26:34.980Z,19.70
2017-11-29T15:29:02.440Z,20.30
2017-11-29T15:31:29.869Z,21.90
2017-11-29T15:33:57.300Z,22.50
2017-11-29T15:36:24.726Z,23.60
2017-11-29T15:38:52.158Z,23.50
2017-11-29T15:41:19.577Z,22.70
2017-11-29T15:43:47.014Z,22.40
2017-11-29T15:46:14.439Z,22.80
2017-11-29T15:48:41.880Z,22.70
2017-11-29T15:51:09.303Z,23.00
2017-11-29T15:53:36.742Z,23.30
2017-11-29T15:56:04.178Z,23.40
2017-11-29T15:58:31.607Z,23.80
2017-11-29T16:00:59.041Z,24.20
2017-11-29T16:03:26.814Z,24.40
2017-11-29T16:05:54.460Z,25.10
2017-11-29T16:08:21.969Z,26.80
2017-11-29T16:10:49.399Z,25.70
2017-11-29T16:13:16.826Z,25.60
2017-11-29T16:15:44.280Z,25.70
2017-11-29T16:18:11.707Z,26.00
2017-11-29T16:20:39.912Z,26.50
2017-11-29T16:23:07.339Z,26.40
2017-11-29T16:25:34.779Z,27.10
2017-11-29T16:28:02.971Z,27.80
2017-11-29T16:30:30.402Z,27.30
2017-11-29T16:32:57.829Z,27.90
2017-11-29T16:35:25.261Z,27.10
2017-11-29T16:37:52.706Z,27.40
2017-11-29T16:40:20.155Z,27.00
2017-11-29T16:42:47.589Z,27.20
2017-11-29T16:45:15.024Z,27.30
2017-11-29T16:47:42.499Z,27.50
2017-11-29T16:50:09.912Z,28.00
2017-11-29T16:52:37.357Z,28.10
2017-11-29T16:55:04.782Z,28.40
2017-11-29T16:57:32.998Z,29.00
2017-11-29T17:00:00.426Z,29.00
2017-11-29T17:02:27.857Z,29.70
2017-11-29T17:04:55.289Z,29.80
2017-11-29T17:07:22.725Z,29.80
2017-11-29T17:09:50.182Z,29.90
2017-11-29T17:12:17.622Z,30.00
2017-11-29T17:14:45.125Z,29.60
2017-11-29T17:17:12.564Z,29.20
2017-11-29T17:19:39.993Z,29.00
2017-11-29T17:22:07.416Z,28.60
2017-11-29T17:24:34.854Z,28.60
2017-11-29T17:27:03.050Z,28.30
2017-11-29T17:29:30.475Z,28.20
2017-11-29T17:31:58.035Z,28.60
2017-11-29T17:34:25.472Z,28.60
2017-11-29T17:36:52.908Z,28.30
2017-11-29T17:39:20.344Z,28.70
2017-11-29T17:41:47.766Z,28.40
2017-11-29T17:44:15.195Z,28.60
2017-11-29T17:46:42.642Z,28.60
2017-11-29T17:49:10.079Z,29.40
2017-11-29T17:51:37.514Z,28.90
2017-11-29T17:54:04.946Z,28.80
2017-11-29T17:56:33.160Z,29.20
2017-11-29T17:59:00.573Z,29.10
2017-11-29T18:01:28.038Z,29.80
2017-11-29T18:03:55.474Z,29.60
2017-11-29T18:06:22.917Z,29.70
2017-11-29T18:08:50.352Z,29.80
2017-11-29T18:11:17.782Z,29.90
2017-11-29T18:13:45.206Z,30.00
2017-11-29T18:16:12.650Z,30.30
2017-11-29T18:18:40.233Z,30.60
2017-11-29T18:21:07.710Z,30.80
2017-11-29T18:23:35.150Z,31.00
2017-11-29T18:26:02.576Z,31.00
2017-11-29T18:28:30.013Z,31.20
2017-11-29T18:30:57.468Z,31.40
2017-11-29T18:33:24.894Z,31.90
2017-11-29T18:35:52.320Z,31.80
2017-11-29T18:38:19.765Z,31.70
2017-11-29T18:40:47.191Z,31.90
2017-11-29T18:43:14.630Z,31.80
2017-11-29T18:45:42.072Z,31.90
2017-11-29T18:48:09.508Z,32.00
2017-11-29T18:50:36.951Z,32.40
2017-11-29T18:53:04.393Z,32.40
2017-11-29T18:55:33.006Z,32.40
2017-11-29T18:58:00.468Z,32.40
2017-11-29T19:00:27.917Z,32.50
2017-11-29T19:02:55.359Z,32.80
2017-11-29T19:05:22.809Z,33.10
2017-11-29T19:07:50.246Z,33.30
2017-11-29T19:10:17.690Z,33.20
2017-11-29T19:12:45.129Z,33.70
2017-11-29T19:15:12.585Z,33.00
2017-11-29T19:17:40.011Z,33.10
2017-11-29T19:20:08.209Z,32.90
2017-11-29T19:22:35.659Z,32.90
2017-11-29T19:25:03.114Z,33.80
2017-11-29T19:27:30.557Z,33.10
2017-11-29T19:29:58.764Z,33.00
2017-11-29T19:32:26.174Z,33.00
2017-11-29T19:34:53.605Z,33.30
2017-11-29T19:37:21.058Z,33.50
2017-11-29T19:39:48.570Z,33.70
2017-11-29T19:42:16.750Z,34.00
2017-11-29T19:44:44.205Z,34.00
2017-11-29T19:47:11.629Z,34.00
2017-11-29T19:49:44.786Z,34.50
2017-11-29T19:52:12.218Z,34.40
2017-11-29T19:54:39.647Z,34.50
2017-11-29T19:57:07.124Z,34.50
2017-11-29T19:59:34.556Z,34.80
2017-11-29T20:02:01.991Z,35.30
2017-11-29T20:04:29.453Z,35.30
2017-11-29T20:06:57.654Z,35.50
2017-11-29T20:09:25.134Z,36.20
2017-11-29T20:11:53.373Z,35.50
2017-11-29T20:14:20.807Z,35.20
2017-11-29T20:16:48.250Z,35.40
2017-11-29T20:19:15.699Z,35.50
2017-11-29T20:21:43.143Z,35.60
2017-11-29T20:24:10.570Z,35.50
2017-11-29T20:26:38.007Z,35.40
2017-11-29T20:29:05.438Z,35.50
2017-11-29T20:31:33.641Z,35.50
2017-11-29T20:34:01.098Z,35.50
2017-11-29T20:36:28.506Z,35.40
2017-11-29T20:38:55.950Z,35.10
2017-11-29T20:41:23.380Z,34.60
2017-11-29T20:43:50.835Z,34.80
2017-11-29T20:46:18.240Z,34.90
2017-11-29T20:48:45.678Z,35.20
2017-11-29T20:51:13.103Z,35.90
2017-11-29T20:53:40.542Z,36.20
2017-11-29T20:56:07.972Z,36.80
2017-11-29T20:58:35.404Z,36.90
2017-11-29T21:01:02.842Z,37.00
2017-11-29T21:03:30.292Z,38.00
2017-11-29T21:05:58.495Z,38.50
2017-11-29T21:08:25.943Z,38.40
2017-11-29T21:10:53.474Z,38.60
2017-11-29T21:13:20.902Z,38.70
2017-11-29T21:15:48.330Z,39.00
2017-11-29T21:18:15.788Z,40.00
2017-11-29T21:20:43.209Z,40.90
2017-11-29T21:23:10.639Z,41.10
2017-11-29T21:25:38.079Z,41.10
2017-11-29T21:28:05.522Z,41.10
2017-11-29T21:30:32.953Z,41.30
2017-11-29T21:33:00.396Z,41.00
2017-11-29T21:35:27.826Z,41.00
2017-11-29T21:37:55.263Z,41.00
2017-11-29T21:40:22.707Z,41.00
2017-11-29T21:42:50.131Z,41.40
2017-11-29T21:45:17.572Z,41.60
2017-11-29T21:47:44.990Z,42.00
2017-11-29T21:50:12.437Z,42.00
2017-11-29T21:52:39.867Z,42.00
2017-11-29T21:55:07.293Z,41.80
2017-11-29T21:57:34.750Z,42.30
2017-11-29T22:00:02.179Z,42.20
2017-11-29T22:02:29.636Z,42.20
2017-11-29T22:04:57.259Z,42.10
2017-11-29T22:07:24.693Z,41.70
2017-11-29T22:09:52.126Z,41.80
2017-11-29T22:12:19.573Z,41.80
2017-11-29T22:14:47.034Z,41.80
2017-11-29T22:17:14.467Z,41.90
2017-11-29T22:19:41.900Z,42.40
2017-11-29T22:22:10.092Z,42.30
2017-11-29T22:24:37.518Z,42.30
2017-11-29T22:27:04.943Z,42.30
2017-11-29T22:29:32.390Z,42.90
2017-11-29T22:31:59.818Z,43.00
2017-11-29T22:34:27.253Z,43.20
2017-11-29T22:36:55.452Z,43.60
2017-11-29T22:39:22.894Z,43.60
2017-11-29T22:41:50.312Z,43.90
2017-11-29T22:44:17.757Z,44.00
2017-11-29T22:46:45.202Z,44.10
2017-11-29T22:49:12.647Z,44.20
2017-11-29T22:51:40.098Z,44.30
2017-11-29T22:54:07.561Z,43.90
2017-11-29T22:56:34.977Z,44.00
2017-11-29T22:59:03.398Z,44.20
2017-11-29T23:01:30.833Z,44.10
2017-11-29T23:03:58.258Z,44.10
2017-11-29T23:06:25.684Z,44.40
2017-11-29T23:08:53.122Z,45.00
2017-11-29T23:11:20.552Z,45.20
2017-11-29T23:13:47.979Z,45.60
2017-11-29T23:16:15.415Z,45.70
2017-11-29T23:18:42.846Z,45.70
2017-11-29T23:21:10.502Z,45.80
2017-11-29T23:23:37.906Z,45.50
2017-11-29T23:26:06.103Z,45.80
2017-11-29T23:28:33.537Z,45.50
2017-11-29T23:31:00.970Z,45.10
2017-11-29T23:33:28.426Z,44.90
2017-11-29T23:35:55.865Z,44.70
2017-11-29T23:38:23.329Z,44.90
2017-11-29T23:40:50.721Z,45.00
2017-11-29T23:43:18.936Z,45.20
2017-11-29T23:45:46.366Z,45.20
2017-11-29T23:48:13.802Z,45.30
2017-11-29T23:50:41.231Z,45.50
2017-11-29T23:53:08.664Z,45.80
2017-11-29T23:55:36.112Z,46.20
2017-11-29T23:58:03.546Z,46.50
